Date,TemperatureHighF,TemperatureAvgF,TemperatureLowF,DewpointHighF,DewpointAvgF,DewpointLowF,HumidityHigh,HumidityAvg,HumidityLow,PressureMaxIn,PressureMinIn,WindSpeedMaxMPH,WindSpeedAvgMPH,GustSpeedMaxMPH,PrecipitationSumIn
2012-1-1,77.0,62.0,51.0,61.0,55.8,51.0,100,83,49,30.30,30.16,5,0,11,0.00
2012-1-2,65.0,58.0,46.0,62.0,47.8,34.0,100,72,34,30.23,30.11,6,1,15,0.02
2012-1-3,49.0,41.1,30.0,35.0,18.5,12.0,68,41,26,30.43,30.19,7,2,20,0.02
2012-1-4,58.0,39.7,26.0,33.0,24.3,19.0,75,57,28,30.47,30.33,3,0,9,0.00
2012-1-5,68.0,49.7,32.0,50.0,41.6,28.0,99,76,51,30.35,30.18,6,1,18,0.00
2012-1-6,72.0,55.3,44.0,57.0,49.4,43.0,100,83,46,30.26,30.13,2,0,8,0.00
2012-1-7,72.0,57.4,46.0,58.0,51.0,45.0,100,82,50,30.24,30.14,4,0,7,0.00
2012-1-8,78.0,60.5,46.0,56.0,51.9,45.0,100,77,44,30.27,30.19,2,0,6,0.00
2012-1-9,78.0,62.9,51.0,62.0,56.9,50.0,100,83,52,30.27,30.12,2,0,8,0.00
2012-1-10,79.0,65.3,54.0,63.0,58.3,53.0,100,80,51,30.15,29.98,3,0,10,0.00
2012-1-11,73.0,65.2,58.0,67.0,61.5,57.0,99,88,81,30.01,29.76,6,2,19,0.04
2012-1-12,76.0,63.8,54.0,62.0,58.3,54.0,100,84,61,29.96,29.85,7,1,19,0.01
2012-1-13,65.0,54.6,47.0,61.0,42.8,32.0,88,65,38,30.27,29.96,5,1,14,0.01
2012-1-14,56.0,45.3,35.0,38.0,30.0,23.0,78,58,28,30.41,30.25,4,0,9,0.00
2012-1-15,69.0,49.8,36.0,46.0,36.0,32.0,95,65,27,30.48,30.37,3,0,12,0.00
2012-1-16,71.0,54.3,40.0,54.0,46.5,38.0,92,77,50,30.50,30.37,5,1,15,0.00
2012-1-17,79.0,60.6,46.0,58.0,52.9,45.0,100,79,48,30.37,30.18,3,0,13,0.00
2012-1-18,76.0,61.9,52.0,64.0,58.2,51.0,100,89,62,30.19,29.98,5,1,17,0.03
2012-1-19,71.0,56.4,44.0,62.0,43.0,31.0,99,67,24,30.22,30.05,3,0,9,0.01
2012-1-20,79.0,59.6,42.0,56.0,49.0,41.0,100,72,38,30.23,30.14,5,1,11,0.00
2012-1-21,79.0,63.4,53.0,59.0,55.7,52.0,100,79,45,30.19,30.05,5,0,13,0.00
2012-1-22,80.0,62.9,50.0,62.0,55.1,50.0,100,80,37,30.18,30.09,5,0,10,0.00
2012-1-23,81.0,66.6,53.0,66.0,60.5,53.0,100,83,53,30.19,30.07,4,0,10,0.00
2012-1-24,82.0,69.8,60.0,67.0,63.0,59.0,100,81,50,30.21,30.13,3,0,7,0.00
2012-1-25,83.0,68.8,57.0,67.0,61.9,57.0,100,81,46,30.22,30.11,4,1,11,0.00
2012-1-26,84.0,70.0,58.0,68.0,58.5,-99.9,100,77,45,30.14,29.98,5,1,17,0.00
2012-1-27,72.0,66.9,55.0,68.0,63.2,54.0,99,88,76,30.10,29.93,7,2,18,0.05
2012-1-28,72.0,58.7,47.0,55.0,51.5,47.0,100,80,47,30.22,30.09,4,0,11,0.03
2012-1-29,74.0,58.1,46.0,54.0,49.6,45.0,100,77,40,30.36,30.21,4,1,11,0.00
2012-1-30,73.0,55.9,41.0,51.0,46.8,40.0,98,75,40,30.43,30.33,7,1,15,0.00
2012-1-31,77.0,59.4,45.0,56.0,51.2,44.0,100,78,45,30.41,30.29,6,1,15,0.00
2012-2-1,80.0,65.5,53.0,61.0,56.3,52.0,99,76,46,30.31,30.16,4,0,9,0.00
2012-2-2,81.0,67.7,58.0,62.0,59.0,55.0,100,77,43,30.22,30.11,4,0,7,0.00
2012-2-3,75.0,65.9,58.0,64.0,60.4,58.0,100,84,60,30.28,30.18,6,1,13,0.00
2012-2-4,82.0,68.6,59.0,64.0,61.1,57.0,99,79,51,30.24,30.10,5,1,13,0.00
2012-2-5,83.0,71.2,60.0,69.0,64.0,59.0,100,80,51,30.13,30.00,5,0,10,0.07
2012-2-6,82.0,71.0,64.0,71.0,66.9,64.0,100,88,58,30.13,30.02,4,1,11,0.08
2012-2-7,69.0,64.3,58.0,65.0,62.8,57.0,100,95,84,30.12,30.04,4,1,10,0.00
2012-2-8,79.0,63.3,54.0,58.0,52.9,43.0,100,74,30,30.14,30.04,4,1,11,0.01
2012-2-9,68.0,59.3,52.0,57.0,53.4,49.0,95,82,64,30.21,30.11,4,1,10,0.01
2012-2-10,79.0,65.9,56.0,69.0,62.0,55.0,100,88,60,30.16,29.91,4,0,12,0.51
2012-2-11,67.0,58.4,47.0,64.0,49.0,25.0,100,74,40,30.17,29.88,13,3,25,0.49
2012-2-12,53.0,41.0,30.0,32.0,22.6,15.0,86,50,29,30.40,30.17,4,1,13,0.01
2012-2-13,67.0,47.1,29.0,47.0,35.2,24.0,92,67,35,30.33,30.14,4,0,10,0.00
2012-2-14,79.0,62.6,46.0,57.0,52.5,45.0,98,73,44,30.16,30.05,8,1,18,0.00
2012-2-15,84.0,69.8,58.0,63.0,59.7,55.0,98,73,48,30.23,30.12,4,1,12,0.00
2012-2-16,83.0,72.1,65.0,66.0,63.0,61.0,92,75,51,30.21,30.05,5,1,15,0.00
2012-2-17,76.0,68.9,64.0,70.0,66.2,62.0,98,91,73,30.10,30.02,3,0,10,0.02
2012-2-18,78.0,69.8,66.0,68.0,66.2,64.0,100,89,67,30.05,29.90,2,0,7,0.02
2012-2-19,85.0,71.2,63.0,72.0,64.8,55.0,99,81,59,29.94,29.77,12,4,31,0.01
2012-2-20,71.0,58.7,50.0,56.0,50.1,46.0,97,75,46,30.25,29.94,7,2,15,0.01
2012-2-21,77.0,62.1,48.0,58.0,51.8,46.0,100,73,41,30.28,30.13,3,0,9,0.00
2012-2-22,80.0,66.9,58.0,68.0,61.4,56.0,100,84,57,30.15,29.92,7,1,17,0.79
2012-2-23,84.0,73.4,65.0,72.0,43.3,-99.9,100,76,58,29.97,29.89,9,2,22,0.79
2012-2-24,88.0,74.7,65.0,69.0,38.8,-99.9,99,70,48,30.02,29.93,11,3,27,0.00
2012-2-25,72.0,63.4,52.0,69.0,44.6,35.0,95,53,28,30.29,30.01,5,1,14,0.00
2012-2-26,68.0,58.2,49.0,63.0,51.5,39.0,100,79,65,30.37,30.28,6,1,16,0.15
2012-2-27,82.0,69.5,63.0,72.0,40.9,-99.9,100,81,73,30.34,30.22,5,0,13,0.18
2012-2-28,79.0,69.0,63.0,69.0,49.1,-99.9,100,82,71,30.32,30.23,5,1,13,0.04
2012-2-29,87.0,74.2,64.0,72.0,4.2,-99.9,100,58,69,30.26,30.10,4,0,11,0.00
2012-3-1,88.0,74.5,66.0,68.0,19.9,-99.9,100,63,60,30.14,29.99,9,2,16,0.00
2012-3-2,87.0,73.4,63.0,69.0,30.1,-99.9,100,66,51,30.08,29.96,5,1,14,0.00
2012-3-3,89.0,76.8,66.0,70.0,12.6,-99.9,98,56,46,29.97,29.78,8,2,22,0.00
2012-3-4,77.0,63.0,47.0,71.0,46.4,28.0,97,60,24,30.24,29.67,8,3,34,0.19
2012-3-5,78.0,59.5,41.0,51.0,39.7,33.0,95,55,22,30.38,30.24,4,1,13,0.08
2012-3-6,75.0,62.9,49.0,57.0,52.5,47.0,93,71,49,30.46,30.34,9,2,20,0.00
2012-3-7,78.0,67.2,55.0,64.0,57.6,53.0,95,73,50,30.44,30.33,7,2,16,0.00
2012-3-8,87.0,71.2,58.0,67.0,63.2,58.0,100,79,44,30.33,30.18,5,1,11,0.00
2012-3-9,83.0,72.3,68.0,72.0,67.2,63.0,96,84,52,30.24,30.10,4,0,11,0.06
2012-3-10,80.0,69.1,63.0,67.0,64.2,61.0,94,85,63,30.27,30.13,5,2,15,0.10
2012-3-11,69.0,66.9,64.0,66.0,62.4,-99.9,95,89,78,30.35,30.24,7,2,14,0.34
2012-3-12,81.0,70.0,60.0,60.0,58.4,56.0,89,68,44,30.34,30.24,4,2,14,0.01
2012-3-13,85.0,69.4,56.0,62.0,57.4,54.0,94,69,40,30.30,30.19,4,1,12,0.00
2012-3-14,85.0,70.2,57.0,64.0,59.1,55.0,94,71,40,30.28,30.17,5,1,12,0.00
2012-3-15,85.0,70.8,60.0,67.0,60.8,57.0,95,73,45,30.29,30.19,7,1,14,0.00
2012-3-16,86.0,71.1,58.0,65.0,59.5,56.0,95,70,38,30.27,30.16,4,1,11,0.00
2012-3-17,86.0,70.4,56.0,64.0,57.5,53.0,94,68,36,30.27,30.16,5,1,11,0.00
2012-3-18,86.0,70.4,57.0,65.0,57.0,52.0,94,67,33,30.28,30.17,4,1,10,0.00
2012-3-19,86.0,70.8,57.0,64.0,58.8,54.0,93,69,41,30.22,30.10,5,1,13,0.00
2012-3-20,87.0,71.6,60.0,65.0,58.6,-99.9,92,68,39,30.16,30.06,6,2,14,0.00
2012-3-21,83.0,72.0,62.0,67.0,62.9,59.0,95,75,51,30.18,30.10,6,2,13,0.00
2012-3-22,88.0,74.2,63.0,68.0,61.6,-99.9,94,69,41,30.20,30.08,4,-6,16,0.00
2012-3-23,89.0,74.2,63.0,67.0,62.3,58.0,94,70,38,30.16,30.01,3,0,10,0.00
2012-3-24,86.0,74.6,65.0,66.0,63.3,60.0,90,70,46,30.06,29.90,5,1,19,0.02
2012-3-25,82.0,71.6,67.0,68.0,59.2,45.0,93,70,30,29.94,29.81,7,2,24,0.15
2012-3-26,85.0,70.2,58.0,58.0,54.7,52.0,93,63,33,30.05,29.90,4,1,11,0.00
2012-3-27,88.0,70.1,54.0,62.0,54.7,49.0,94,64,28,30.22,30.04,4,1,14,0.00
2012-3-28,88.0,72.3,59.0,64.0,59.4,54.0,93,68,32,30.22,30.08,5,1,13,0.00
2012-3-29,87.0,73.7,60.0,64.0,59.1,54.0,94,64,35,30.10,29.97,4,0,13,0.00
2012-3-30,92.0,74.9,63.0,64.0,58.8,55.0,90,61,32,30.09,29.97,3,0,11,0.00
2012-3-31,82.0,71.7,66.0,67.0,62.2,56.0,92,73,52,30.01,29.85,9,2,26,0.37
2012-4-1,90.0,74.2,64.0,67.0,62.6,56.0,94,71,34,29.96,29.85,4,1,13,0.01
2012-4-2,92.0,76.8,69.0,67.0,63.2,54.0,91,67,31,29.94,29.85,5,1,13,0.01
2012-4-3,94.0,77.8,63.0,68.0,59.1,45.0,95,60,19,29.99,29.90,5,0,14,0.00
2012-4-4,92.0,76.8,64.0,66.0,58.7,54.0,91,58,29,29.99,29.80,6,1,16,0.00
2012-4-5,89.0,76.8,70.0,67.0,63.1,61.0,81,65,41,29.86,29.74,8,2,21,0.00
2012-4-6,86.0,73.2,65.0,68.0,60.1,42.0,92,67,22,30.01,29.74,8,2,20,0.00
2012-4-7,81.0,68.3,57.0,55.0,52.3,49.0,82,59,36,30.20,30.01,6,2,15,0.00
2012-4-8,84.0,69.0,56.0,55.0,51.6,49.0,86,57,31,30.23,30.08,3,0,9,0.00
2012-4-9,85.0,69.7,55.0,58.0,52.6,49.0,91,59,31,30.13,30.00,4,0,7,0.00
2012-4-10,90.0,73.4,58.0,61.0,55.4,46.0,88,58,24,30.10,29.96,4,0,16,0.00
2012-4-11,72.0,67.3,66.0,61.0,60.0,58.0,84,77,65,30.05,30.02,1,0,3,0.00
2012-4-12,73.0,70.1,68.0,60.0,58.3,56.0,74,67,55,30.10,30.07,3,1,12,0.00
2012-4-13,87.0,70.7,58.0,62.0,56.9,49.0,91,66,28,30.18,30.06,4,1,13,0.00
2012-4-14,77.0,70.7,65.0,62.0,60.2,59.0,84,70,54,30.27,30.16,6,1,13,0.00
2012-4-15,84.0,72.0,60.0,61.0,56.7,-99.9,90,62,40,30.26,30.18,5,1,10,0.00
2012-4-16,87.0,73.7,60.0,62.0,58.3,53.0,90,61,33,30.25,30.16,4,1,17,0.00
2012-4-17,90.0,73.6,59.0,62.0,57.6,54.0,92,61,30,30.21,30.07,3,1,10,0.00
2012-4-18,88.0,76.0,64.0,68.0,59.9,56.0,86,60,34,30.13,29.97,4,0,16,0.01
2012-4-19,83.0,73.0,67.0,70.0,65.7,62.0,93,79,53,30.01,29.90,5,0,20,0.47
2012-4-20,88.0,73.3,66.0,69.0,66.2,63.0,95,81,47,29.94,29.83,4,1,19,9.88
2012-4-21,83.0,70.7,65.0,68.0,65.5,63.0,96,85,55,29.90,29.62,4,1,23,9.92
2012-4-22,80.0,69.2,63.0,64.0,60.6,-99.9,96,79,54,29.74,29.52,7,2,18,0.78
2012-4-23,73.0,64.1,56.0,54.0,42.2,36.0,69,46,27,29.92,29.75,9,3,26,0.01
2012-4-24,75.0,60.6,46.0,43.0,34.5,27.0,66,41,19,30.06,29.92,7,1,19,0.00
2012-4-25,84.0,65.0,49.0,53.0,42.7,-99.9,87,51,22,30.13,30.04,4,0,10,0.00
2012-4-26,90.0,69.4,56.0,61.0,50.6,-99.9,90,59,29,30.17,30.04,4,1,12,0.00
2012-4-27,93.0,74.8,59.0,64.0,56.9,44.0,94,61,20,30.15,30.03,3,0,10,0.00
2012-4-28,90.0,76.6,64.0,68.0,63.2,59.0,92,66,36,30.13,30.04,4,0,12,0.00
2012-4-29,87.0,76.4,67.0,70.0,65.0,-99.9,93,71,43,30.14,30.06,4,1,12,0.00
2012-4-30,88.0,76.4,67.0,71.0,66.3,62.0,94,73,44,30.15,30.07,5,1,16,0.00
2012-5-1,90.0,77.7,68.0,70.0,66.3,64.0,93,70,44,30.14,30.04,5,1,15,0.00
2012-5-2,92.0,78.2,67.0,69.0,65.3,61.0,94,68,38,30.13,30.06,5,1,14,0.00
2012-5-3,94.0,78.8,67.0,68.0,65.5,62.0,93,67,35,30.14,30.05,3,1,13,0.00
2012-5-4,90.0,78.4,68.0,69.0,65.2,61.0,91,67,38,30.13,30.01,2,0,9,0.00
2012-5-5,95.0,80.6,68.0,68.0,64.6,56.0,91,62,29,30.05,29.91,3,0,11,0.00
2012-5-6,95.0,80.1,71.0,71.0,65.0,-99.9,92,65,35,29.99,29.87,6,1,15,0.00
2012-5-7,92.0,75.3,69.0,71.0,67.2,62.0,95,78,40,29.94,29.87,4,0,10,1.08
2012-5-8,91.0,75.2,65.0,71.0,67.2,64.0,96,79,42,29.94,29.83,3,0,12,0.01
2012-5-9,86.0,75.2,68.0,73.0,68.7,66.0,94,81,57,29.91,29.77,7,1,14,0.16
2012-5-10,89.0,76.6,67.0,71.0,64.5,57.0,92,69,35,29.96,29.79,4,1,11,0.13
2012-5-11,70.0,67.4,66.0,63.0,62.5,62.0,88,85,79,29.97,29.94,0,0,0,0.00
2012-5-13,83.0,79.3,74.0,66.0,65.0,63.0,75,62,53,30.15,30.06,2,1,9,0.00
2012-5-14,87.0,75.5,71.0,70.0,68.1,64.0,93,79,53,30.09,29.97,2,0,9,0.05
2012-5-15,92.0,77.0,69.0,71.0,67.2,63.0,94,75,39,30.05,29.93,6,1,17,0.27
2012-5-16,78.0,71.2,68.0,72.0,68.1,65.0,95,90,80,30.05,29.96,2,0,6,0.33
2012-5-17,88.0,75.9,68.0,70.0,67.0,64.0,95,76,48,29.99,29.83,4,0,15,0.02
2012-5-18,90.0,74.3,64.0,70.0,65.5,62.0,95,76,45,29.98,29.89,3,0,11,0.00
2012-5-19,88.0,75.2,66.0,69.0,65.4,62.0,94,74,46,30.04,29.94,4,1,14,0.00
2012-5-20,92.0,75.0,62.0,64.0,56.7,-99.9,91,61,22,30.04,29.93,4,0,13,0.00
2012-5-21,92.0,76.6,64.0,66.0,61.5,58.0,90,63,34,30.01,29.91,6,0,12,0.00
2012-5-22,94.0,79.7,66.0,68.0,61.2,51.0,93,59,24,29.99,29.85,5,1,12,0.00
2012-5-23,96.0,79.9,68.0,70.0,64.2,53.0,92,64,24,29.96,29.83,4,1,12,0.00
2012-5-24,91.0,79.7,70.0,72.0,69.9,67.0,93,73,50,29.94,29.88,4,1,14,0.00
2012-5-25,93.0,80.4,71.0,73.0,69.3,67.0,93,72,43,30.08,29.93,3,0,12,0.00
2012-5-26,95.0,79.3,68.0,70.0,65.7,61.0,94,67,35,30.08,29.97,4,0,15,0.00
2012-5-27,90.0,77.7,71.0,73.0,66.7,63.0,89,70,43,29.99,29.81,7,1,18,0.06
2012-5-28,87.0,75.9,73.0,74.0,70.4,68.0,92,83,62,29.94,29.80,6,1,18,0.27
2012-5-29,75.0,74.3,74.0,71.0,70.3,69.0,89,87,85,29.94,29.89,2,0,10,0.24
2012-5-30,92.0,81.2,75.0,76.0,71.8,69.0,92,75,51,29.91,29.81,8,2,21,0.03
2012-5-31,93.0,80.5,73.0,75.0,70.4,66.0,94,74,42,29.94,29.84,8,1,20,0.03
2012-6-1,78.0,74.3,71.0,72.0,70.2,69.0,94,87,78,29.98,29.86,4,0,16,0.53
2012-6-2,92.0,79.5,71.0,73.0,69.1,65.0,94,73,46,29.99,29.89,7,2,19,0.01
2012-6-3,93.0,80.4,68.0,67.0,62.0,-99.9,91,59,31,30.06,29.96,4,0,12,0.00
2012-6-4,92.0,80.7,70.0,72.0,68.0,64.0,88,67,46,30.01,29.83,11,2,21,0.00
2012-6-5,88.0,77.9,72.0,74.0,71.9,68.0,94,82,57,29.88,29.80,7,2,17,0.21
2012-6-6,81.0,73.5,69.0,77.0,70.9,67.0,95,91,83,29.96,29.83,4,0,23,1.32
2012-6-7,85.0,74.4,70.0,74.0,70.9,68.0,96,90,67,29.99,29.93,2,0,13,0.96
2012-6-8,82.0,75.4,71.0,76.0,72.3,69.0,96,91,78,30.00,29.93,2,0,10,0.69
2012-6-9,87.0,76.4,73.0,77.0,72.3,71.0,95,88,64,30.07,29.96,2,0,7,0.38
2012-6-10,95.0,79.8,71.0,76.0,70.8,-99.9,96,80,49,30.19,30.02,5,0,20,2.05
2012-6-11,95.0,79.9,69.0,76.0,71.4,68.0,96,78,49,30.15,30.06,4,0,9,2.04
2012-6-12,94.0,79.0,71.0,74.0,69.6,68.0,90,75,46,30.12,29.94,4,0,18,0.07
2012-6-13,94.0,79.9,70.0,75.0,70.6,66.0,93,75,48,30.00,29.86,5,1,13,0.08
2012-6-14,91.0,75.2,69.0,76.0,70.9,65.0,95,87,56,30.03,29.90,4,0,21,0.44
2012-6-15,87.0,77.1,70.0,75.0,69.7,66.0,96,80,55,30.07,29.97,4,0,13,0.16
2012-6-16,89.0,78.0,69.0,72.0,67.3,64.0,94,72,48,30.10,30.02,6,1,17,0.00
2012-6-17,87.0,76.2,68.0,70.0,65.8,-99.9,93,73,52,30.10,29.98,3,0,10,0.00
2012-6-18,90.0,77.6,67.0,70.0,64.6,61.0,94,67,40,30.08,30.00,5,1,11,0.00
2012-6-19,87.0,77.3,67.0,69.0,65.5,62.0,91,69,45,30.11,30.05,7,1,15,0.00
2012-6-20,84.0,76.0,72.0,73.0,69.6,67.0,93,81,59,30.08,30.02,4,1,14,0.09
2012-6-21,86.0,78.3,73.0,78.0,73.0,71.0,95,84,69,30.04,29.91,3,0,11,0.29
2012-6-22,86.0,77.2,73.0,77.0,73.6,71.0,95,89,72,29.96,29.87,2,0,9,0.36
2012-6-23,84.0,78.2,73.0,75.0,72.9,71.0,96,85,69,29.99,29.88,2,0,11,0.07
2012-6-24,79.0,75.2,73.0,74.0,72.7,70.0,95,92,84,29.99,29.79,5,1,16,2.58
2012-6-25,81.0,76.7,74.0,75.0,73.3,72.0,95,89,79,29.81,29.67,7,3,28,6.61
2012-6-26,84.0,79.5,76.0,77.0,74.4,72.0,93,85,74,29.67,29.59,7,2,20,1.98
2012-6-27,86.0,77.3,71.0,75.0,71.5,66.0,95,83,66,30.04,29.61,4,1,16,0.40
2012-6-28,92.0,76.9,62.0,68.0,63.2,59.0,96,67,34,30.11,30.02,2,0,9,0.08
2012-6-29,93.0,80.0,67.0,72.0,68.6,65.0,94,71,44,30.07,29.93,7,1,14,0.00
2012-6-30,93.0,82.5,71.0,72.0,70.2,68.0,94,68,46,30.02,29.93,6,1,14,0.00
2012-7-1,95.0,81.4,70.0,74.0,70.5,67.0,94,72,46,30.09,29.98,6,1,12,0.00
2012-7-2,95.0,82.4,73.0,75.0,71.0,68.0,94,71,42,30.11,29.99,4,0,12,0.00
2012-7-3,96.0,82.3,74.0,76.0,70.3,66.0,91,70,41,30.09,29.97,5,0,17,0.06
2012-7-4,94.0,78.4,72.0,76.0,71.6,69.0,95,81,49,30.10,30.03,4,0,15,0.27
2012-7-5,95.0,81.0,71.0,75.0,71.1,67.0,95,75,45,30.10,29.97,4,0,20,0.01
2012-7-6,96.0,81.5,75.0,78.0,73.0,70.0,93,77,44,30.08,29.99,5,0,18,0.31
2012-7-7,95.0,83.5,74.0,75.0,72.2,67.0,92,70,48,30.10,30.03,3,0,9,0.01
2012-7-8,98.0,83.1,74.0,76.0,73.0,70.0,94,74,42,30.12,30.02,5,0,17,1.18
2012-7-9,93.0,78.4,71.0,77.0,72.8,68.0,96,85,55,30.08,29.96,3,0,17,1.21
2012-7-10,95.0,79.8,70.0,76.0,71.8,68.0,96,79,43,30.06,29.97,2,0,11,0.02
2012-7-11,82.0,76.3,73.0,76.0,72.6,71.0,95,88,78,30.09,29.99,1,0,9,0.05
2012-7-12,90.0,78.3,70.0,76.0,71.6,68.0,96,82,57,30.06,29.97,3,0,9,0.01
2012-7-13,93.0,82.0,73.0,75.0,72.0,70.0,91,73,51,30.10,30.01,3,1,12,0.01
2012-7-14,93.0,82.9,75.0,75.0,72.1,70.0,93,72,49,30.13,30.04,4,0,13,0.00
2012-7-15,87.0,77.7,73.0,75.0,72.4,70.0,93,84,60,30.14,30.06,3,0,9,0.14
2012-7-16,91.0,77.2,72.0,77.0,72.2,70.0,95,85,55,30.10,29.97,6,0,11,0.07
2012-7-17,81.0,75.2,72.0,76.0,72.5,70.0,95,91,81,30.05,29.97,2,0,10,0.65
2012-7-18,90.0,78.3,72.0,75.0,72.1,70.0,95,83,59,30.14,30.01,5,1,17,0.02
2012-7-19,95.0,81.6,74.0,77.0,73.8,71.0,94,78,52,30.18,30.10,4,1,14,0.00
2012-7-20,96.0,83.6,72.0,76.0,71.3,65.0,92,69,37,30.14,30.05,3,0,10,0.00
2012-7-21,97.0,83.9,75.0,79.0,73.3,70.0,92,73,44,30.14,30.05,4,0,11,0.09
2012-7-22,94.0,80.4,74.0,78.0,73.7,70.0,94,81,52,30.19,30.10,5,0,15,0.32
2012-7-23,90.0,77.7,72.0,77.0,72.6,70.0,95,86,60,30.21,30.10,2,0,20,1.83
2012-7-24,91.0,78.9,71.0,78.0,73.0,69.0,96,83,60,30.16,30.03,7,0,22,1.83
2012-7-25,93.0,82.4,74.0,77.0,74.5,71.0,94,78,58,30.05,29.98,6,1,17,0.00
2012-7-26,96.0,84.1,75.0,76.0,74.1,72.0,94,74,49,30.05,29.97,5,1,15,0.00
2012-7-27,97.0,84.1,74.0,76.0,72.8,69.0,94,71,42,30.10,29.99,4,1,12,0.00
2012-7-28,97.0,85.3,76.0,76.0,72.6,68.0,92,68,42,30.11,30.02,3,0,10,0.00
2012-7-29,96.0,84.8,76.0,76.0,73.0,69.0,91,70,45,30.09,29.98,6,1,13,0.00
2012-7-30,91.0,80.1,74.0,76.0,72.8,69.0,91,79,57,30.06,30.00,9,1,20,0.04
2012-7-31,94.0,79.8,73.0,76.0,72.6,69.0,93,80,53,30.05,29.97,7,1,18,0.24
2012-8-1,91.0,79.9,74.0,76.0,73.3,71.0,94,81,61,30.02,29.94,5,1,18,0.01
2012-8-2,93.0,82.7,75.0,77.0,73.5,71.0,94,76,52,30.02,29.92,4,0,14,0.01
2012-8-3,93.0,78.7,73.0,75.0,72.0,69.0,93,81,53,30.05,29.94,4,0,12,0.09
2012-8-4,90.0,79.4,72.0,77.0,72.9,70.0,95,82,59,30.08,29.99,3,0,10,0.02
2012-8-5,90.0,82.0,77.0,76.0,73.8,70.0,89,77,58,30.13,30.03,4,0,13,0.00
2012-8-6,91.0,80.6,76.0,78.0,74.7,73.0,93,83,59,30.12,30.00,4,0,15,0.03
2012-8-7,95.0,80.7,74.0,77.0,73.8,72.0,94,81,48,30.06,29.97,4,0,15,0.12
2012-8-8,97.0,80.6,74.0,78.0,74.0,70.0,96,82,49,30.07,29.98,7,0,15,0.28
2012-8-9,96.0,80.8,71.0,77.0,72.4,69.0,95,78,48,30.06,29.92,3,0,11,0.19
2012-8-10,96.0,81.7,74.0,77.0,73.1,69.0,95,77,48,30.02,29.93,7,0,14,0.07
2012-8-11,94.0,81.6,75.0,75.0,72.8,71.0,91,76,53,30.03,29.93,4,0,10,0.00
2012-8-12,92.0,80.5,73.0,76.0,71.7,-99.9,92,77,53,30.06,29.98,5,0,15,0.00
2012-8-13,95.0,81.3,74.0,76.0,73.9,72.0,93,79,51,30.09,30.02,4,0,16,0.00
2012-8-14,98.0,80.8,74.0,76.0,72.3,68.0,94,78,39,30.07,29.98,4,0,15,0.03
2012-8-15,97.0,81.0,72.0,76.0,72.4,70.0,95,78,44,30.06,29.97,3,0,9,0.03
2012-8-16,95.0,81.4,73.0,76.0,72.4,69.0,94,76,50,30.09,30.00,4,0,11,0.03
2012-8-17,93.0,80.8,75.0,77.0,73.7,71.0,92,80,57,30.06,29.96,5,0,14,0.04
2012-8-18,87.0,79.8,75.0,76.0,73.6,71.0,94,82,63,30.01,29.90,7,1,20,0.02
2012-8-19,92.0,79.2,74.0,78.0,73.8,71.0,94,84,57,29.99,29.91,5,1,13,0.13
2012-8-20,95.0,80.0,74.0,77.0,73.8,72.0,95,83,50,30.04,29.88,13,1,31,0.30
2012-8-21,95.0,76.4,70.0,76.0,71.2,68.0,95,86,48,30.11,29.96,7,1,24,0.87
2012-8-22,88.0,74.1,70.0,74.0,71.0,67.0,96,91,63,30.14,30.01,10,0,25,0.43
2012-8-23,91.0,79.5,72.0,74.0,71.7,69.0,94,79,54,30.13,30.05,3,0,11,0.01
2012-8-24,92.0,80.1,72.0,75.0,71.3,69.0,92,76,51,30.09,29.99,2,0,13,0.00
2012-8-25,88.0,75.7,72.0,75.0,71.5,69.0,94,87,64,30.06,29.99,4,0,13,0.44
2012-8-26,84.0,77.3,73.0,78.0,74.2,71.0,95,90,78,30.03,29.89,4,1,16,0.25
2012-8-27,79.0,76.8,73.0,77.0,74.0,71.0,96,91,87,29.93,29.82,6,1,14,1.21
2012-8-28,90.0,79.5,75.0,80.0,75.3,73.0,95,88,65,30.02,29.91,7,1,18,0.63
2012-8-29,92.0,78.5,73.0,80.0,74.4,71.0,96,89,60,30.03,29.94,5,0,16,1.53
2012-8-30,92.0,80.5,73.0,78.0,74.3,71.0,96,83,57,30.14,29.98,1,0,11,1.15
2012-8-31,92.0,81.4,73.0,77.0,73.9,71.0,95,79,55,30.21,30.11,2,0,9,0.00
2012-9-1,93.0,81.8,74.0,77.0,72.4,69.0,95,75,50,30.19,30.08,1,0,11,0.00
2012-9-2,92.0,80.3,70.0,73.0,68.9,65.0,95,71,41,30.11,30.00,2,0,6,0.00
2012-9-3,96.0,81.1,69.0,72.0,68.6,64.0,94,69,38,30.08,29.98,1,0,6,0.00
2012-9-4,94.0,81.4,72.0,73.0,70.2,66.0,94,71,45,30.04,29.93,3,0,11,0.00
2012-9-5,94.0,80.3,73.0,73.0,70.8,69.0,94,75,44,30.01,29.91,4,1,11,1.35
2012-9-6,91.0,77.5,70.0,75.0,72.0,68.0,95,85,56,30.04,29.95,3,0,16,1.57
2012-9-7,92.0,78.9,71.0,76.0,72.0,69.0,94,81,55,30.02,29.91,5,0,19,0.19
2012-9-8,92.0,81.2,72.0,76.0,72.0,68.0,95,75,51,29.97,29.86,6,1,18,0.01
2012-9-9,86.0,78.4,75.0,76.0,73.6,72.0,94,85,72,29.97,29.86,8,2,17,1.28
2012-9-10,88.0,78.8,74.0,77.0,73.3,69.0,95,85,66,30.06,29.93,2,0,11,1.18
2012-9-11,85.0,77.5,70.0,71.0,68.8,64.0,92,75,59,30.16,30.03,3,0,12,0.00
2012-9-12,88.0,76.9,68.0,74.0,68.2,64.0,93,77,54,30.16,30.09,6,1,17,0.00
2012-9-13,91.0,79.5,71.0,73.0,69.7,68.0,93,74,52,30.14,30.05,3,0,14,0.00
2012-9-14,88.0,76.9,72.0,75.0,71.7,69.0,93,85,60,30.11,30.02,3,0,11,0.25
2012-9-15,88.0,77.3,70.0,74.0,71.0,68.0,95,82,53,30.11,30.03,3,0,11,0.01
2012-9-16,89.0,78.3,71.0,76.0,71.0,69.0,95,79,56,30.09,30.00,2,0,9,0.06
2012-9-17,94.0,79.5,71.0,76.0,71.1,68.0,94,78,46,30.05,29.92,4,0,12,0.12
2012-9-18,85.0,75.9,73.0,76.0,72.5,71.0,94,89,70,29.98,29.87,3,0,15,0.40
2012-9-19,88.0,77.1,73.0,76.0,73.2,71.0,94,88,65,30.06,29.92,4,0,16,0.23
2012-9-20,87.0,78.9,74.0,74.0,72.8,71.0,95,83,64,30.06,29.96,1,0,6,0.20
2012-9-21,90.0,76.7,72.0,75.0,71.5,69.0,94,85,57,30.05,29.94,4,0,12,0.15
2012-9-22,87.0,76.9,70.0,74.0,70.9,68.0,95,83,61,30.06,29.97,1,0,5,0.12
2012-9-23,92.0,78.4,68.0,73.0,68.6,-99.9,95,76,48,30.10,30.01,1,0,6,0.00
2012-9-24,88.0,75.4,67.0,70.0,62.7,57.0,87,67,36,30.13,30.03,2,0,7,0.00
2012-9-25,86.0,74.2,65.0,73.0,67.1,61.0,92,79,56,30.13,30.05,3,0,12,0.00
2012-9-26,93.0,79.0,68.0,74.0,69.6,66.0,95,75,44,30.14,30.05,1,0,6,0.00
2012-9-27,94.0,78.5,71.0,75.0,71.3,68.0,94,80,47,30.14,30.03,3,0,14,0.04
2012-9-28,91.0,78.4,70.0,75.0,71.7,68.0,95,81,55,30.10,29.97,2,0,10,0.01
2012-9-29,91.0,79.3,71.0,76.0,71.4,69.0,95,78,51,30.02,29.86,2,0,6,0.00
2012-9-30,94.0,81.1,72.0,75.0,72.4,70.0,94,76,52,29.93,29.78,3,0,10,0.03
2012-10-1,92.0,79.4,72.0,78.0,73.7,70.0,95,83,57,29.85,29.74,5,0,12,0.10
2012-10-2,89.0,79.1,73.0,76.0,73.6,71.0,93,84,62,30.05,29.82,4,1,15,0.12
2012-10-3,91.0,77.0,73.0,76.0,72.7,71.0,95,87,57,30.19,30.03,5,0,20,0.14
2012-10-4,93.0,78.4,71.0,78.0,72.3,69.0,95,84,55,30.21,30.08,3,0,16,1.01
2012-10-11,83.0,73.6,66.0,67.0,64.5,61.0,88,74,56,30.20,30.14,1,0,7,0.00
2012-10-12,86.0,72.0,62.0,69.0,61.9,59.0,94,74,41,30.22,30.12,4,0,13,0.00
2012-10-13,84.0,72.5,64.0,68.0,64.0,61.0,93,76,53,30.21,30.13,3,0,15,0.00
2012-10-14,87.0,74.9,64.0,71.0,66.8,62.0,94,78,55,30.16,30.02,3,0,11,0.00
2012-10-15,87.0,76.0,68.0,74.0,69.2,66.0,94,81,57,30.01,29.83,2,0,6,0.00
2012-10-16,85.0,74.0,66.0,68.0,65.4,62.0,93,76,53,29.91,29.82,3,0,11,0.00
2012-10-17,79.0,71.3,64.0,72.0,66.3,61.0,91,84,74,29.92,29.83,2,0,5,0.00
2012-10-18,89.0,76.5,69.0,71.0,68.2,66.0,93,77,53,29.93,29.80,4,0,10,0.00
2012-10-19,87.0,75.4,66.0,72.0,67.9,63.0,95,79,52,29.90,29.82,4,0,14,0.00
2012-10-20,82.0,71.8,61.0,69.0,57.4,49.0,91,64,34,29.99,29.87,4,0,12,0.00
2012-10-21,83.0,66.3,52.0,60.0,54.2,48.0,91,68,38,30.09,29.98,2,0,9,0.00
2012-10-22,85.0,69.3,59.0,66.0,60.5,55.0,93,75,49,30.11,30.03,4,1,12,0.00
2012-10-23,84.0,71.2,62.0,66.0,62.3,58.0,93,75,52,30.11,30.01,4,0,11,0.00
2012-10-24,85.0,73.0,64.0,70.0,65.8,61.0,93,80,54,30.06,29.95,5,1,14,0.13
2012-10-25,82.0,71.9,67.0,73.0,68.9,65.0,95,91,68,29.97,29.84,4,0,12,0.82
2012-10-26,83.0,74.3,70.0,69.0,67.0,63.0,94,79,57,29.84,29.63,6,2,23,0.54
2012-10-27,72.0,69.0,66.0,63.0,61.0,59.0,81,76,71,29.70,29.55,7,2,18,0.00
2012-10-28,73.0,65.3,59.0,61.0,58.1,53.0,88,78,62,29.81,29.68,9,3,21,0.00
2012-10-29,67.0,57.3,49.0,53.0,43.6,36.0,83,62,35,29.88,29.74,8,3,19,0.00
2012-10-30,65.0,55.7,45.0,46.0,36.7,32.0,73,50,31,29.96,29.83,11,4,25,0.00
2012-10-31,70.0,57.8,45.0,49.0,41.9,37.0,82,59,32,30.06,29.96,8,2,20,0.00
2012-11-1,79.0,65.3,55.0,61.0,56.3,49.0,93,75,47,30.05,29.93,8,1,16,0.00
2012-11-2,77.0,62.7,51.0,56.0,49.7,46.0,94,67,34,30.11,30.02,4,0,10,0.00
2012-11-3,82.0,67.3,55.0,66.0,57.9,52.0,94,74,49,30.14,30.06,4,0,7,0.00
2012-11-4,81.0,67.4,56.0,64.0,58.6,53.0,95,76,50,30.13,30.01,4,0,12,0.00
2012-11-5,79.0,68.0,61.0,66.0,60.5,56.0,94,79,50,30.02,29.93,3,0,13,0.00
2012-11-6,75.0,62.9,56.0,62.0,56.3,52.0,92,81,54,29.97,29.82,6,1,15,0.02
2012-11-7,65.0,57.4,50.0,53.0,48.1,44.0,92,73,48,30.01,29.86,9,1,20,0.02
2012-11-8,67.0,53.5,43.0,47.0,43.4,40.0,89,71,42,30.20,30.01,3,0,10,0.00
2012-11-9,72.0,54.6,41.0,49.0,42.3,36.0,94,68,27,30.30,30.19,3,0,9,0.00
2012-11-10,75.0,58.6,45.0,56.0,49.6,42.0,92,74,49,30.35,30.26,2,0,11,0.00
2012-11-11,79.0,65.5,53.0,63.0,58.0,51.0,94,79,53,30.33,30.25,5,1,15,0.00
2012-11-12,79.0,67.8,59.0,68.0,62.4,57.0,95,84,59,30.28,30.19,4,0,9,0.00
2012-11-13,81.0,67.9,58.0,67.0,61.3,56.0,95,81,52,30.21,30.11,2,0,6,0.00
2012-11-14,75.0,66.9,62.0,66.0,62.4,-99.9,94,87,73,30.21,30.13,3,0,9,0.03
2012-11-15,65.0,61.9,58.0,63.0,59.3,55.0,94,91,88,30.18,30.10,3,0,7,0.03
2012-11-16,68.0,60.8,56.0,57.0,55.0,53.0,91,82,67,30.19,30.13,3,1,10,0.01
2012-11-17,72.0,61.8,59.0,64.0,57.7,55.0,90,87,74,30.18,30.13,3,1,9,0.00
2012-12-1,61.0,61.0,61.0,59.0,59.0,59.0,92,92,92,30.27,30.26,0,0,0,0.00
2012-12-2,80.0,65.1,56.0,65.0,59.1,54.0,95,83,53,30.31,30.22,4,0,9,0.01
2012-12-3,78.0,66.6,59.0,65.0,59.9,56.0,94,81,51,30.32,30.22,2,0,7,0.01
2012-12-4,78.0,63.4,54.0,61.0,55.1,52.0,95,77,44,30.33,30.22,3,0,9,0.00
2012-12-5,76.0,64.8,55.0,64.0,59.0,52.0,92,83,62,30.22,30.08,4,1,10,0.00
2012-12-6,80.0,64.7,57.0,65.0,56.8,-99.9,95,80,55,30.10,29.96,4,0,11,0.00
2012-12-7,75.0,66.3,62.0,65.0,62.1,60.0,94,87,68,30.05,29.95,4,0,11,0.00
2012-12-8,78.0,67.9,61.0,68.0,63.6,59.0,95,87,68,30.09,30.00,3,0,6,0.00
2012-12-9,80.0,69.7,63.0,68.0,64.7,60.0,95,85,67,30.11,30.03,3,0,11,0.00
2012-12-10,79.0,70.1,60.0,72.0,66.4,58.0,96,88,74,30.05,29.85,5,1,15,0.02
2012-12-11,79.0,71.8,66.0,72.0,68.2,64.0,95,89,74,30.05,29.90,3,0,9,0.05
2012-12-12,79.0,70.4,62.0,72.0,67.3,60.0,95,90,77,30.11,30.01,3,0,10,0.37
2012-12-13,62.0,59.0,55.0,60.0,56.2,52.0,94,91,84,30.22,30.08,3,1,13,0.01
2012-12-14,69.0,59.2,55.0,61.0,55.1,52.0,93,87,73,30.26,30.14,4,1,12,0.01
2012-12-15,77.0,64.1,56.0,65.0,58.4,54.0,95,83,59,30.19,30.08,3,0,7,0.01
2012-12-16,79.0,66.2,57.0,67.0,60.4,55.0,96,83,57,30.09,29.97,2,0,12,0.00
2012-12-17,81.0,68.7,60.0,66.0,61.9,58.0,96,81,56,30.00,29.88,7,1,17,0.00
2012-12-18,79.0,69.1,53.0,69.0,58.9,45.0,93,72,39,30.05,29.88,8,2,25,0.00
2012-12-19,76.0,58.2,44.0,54.0,48.1,41.0,95,73,36,30.14,30.05,2,0,6,0.00
2012-12-20,80.0,67.0,53.0,67.0,59.1,50.0,96,78,53,30.11,29.93,6,1,19,0.32
2012-12-21,69.0,53.2,45.0,67.0,38.1,25.0,93,59,28,30.22,29.92,10,4,21,0.43
2012-12-22,60.0,46.3,36.0,31.0,25.5,21.0,78,46,25,30.31,30.21,6,2,14,0.01
2012-12-23,65.0,47.5,32.0,41.0,33.2,28.0,90,63,26,30.30,30.17,4,0,6,0.00
2012-12-24,69.0,57.2,45.0,54.0,47.5,41.0,90,71,51,30.17,30.00,4,0,14,0.00
2012-12-25,74.0,62.7,52.0,60.0,55.7,49.0,94,79,59,30.06,29.93,4,0,14,0.00
2012-12-26,77.0,64.3,50.0,67.0,58.2,42.0,92,81,61,30.01,29.77,10,3,27,0.26
2012-12-27,58.0,46.1,35.0,43.0,37.6,32.0,90,73,50,30.14,30.00,5,1,11,0.25
2012-12-28,69.0,54.1,37.0,60.0,46.0,35.0,95,77,48,30.14,29.96,4,0,8,0.27
2012-12-29,73.0,65.7,50.0,70.0,60.1,43.0,95,83,56,30.15,29.87,11,3,20,0.30
2012-12-30,55.0,46.2,36.0,44.0,37.5,31.0,84,73,53,30.40,30.15,5,1,14,0.03
2012-12-31,74.0,56.1,41.0,57.0,48.6,38.0,93,78,54,30.39,30.22,4,0,10,0.00
2013-1-1,77.0,61.9,50.0,60.0,54.5,48.0,95,79,53,30.25,30.06,5,0,15,0.00